Time;durP1;ratioP1;P1;durP2;ratioP2;P2;SDS_P1;SDS_P2;PMS_P1;PMS_P2;Temp;Humidity;BMP_temperature;BMP_pressure;BME280_temperature;BME280_humidity;BME280_pressure;Samples;Min_cycle;Max_cycle;Signal;HPM_P1;HPM_P2
2022/02/09 00:02:01;;;;;;;;;;;;;;;8.86;82.14;100366.19;1779309;79;20572;-77
2022/02/09 00:09:26;;;;;;;;;;;;;;;8.74;82.33;100378.64;1788815;78;20975;-77
2022/02/09 00:12:04;;;;;;;;;;;;;;;8.49;83.60;100384.80;1780054;79;20146;-81
2022/02/09 00:14:26;;;;;;;;;;;;;;;8.54;83.16;100382.58;1784275;78;20117;-78
2022/02/09 00:20:27;;;;;;;;;;;;;;;8.40;83.24;100413.21;1790009;78;21088;-76
2022/02/09 00:35:53;;;;;;;;;;;;;;;8.41;83.22;100431.99;1786449;79;20151;-78
2022/02/09 01:38:11;;;;;;;;;;;;;;;8.22;84.69;100482.77;1780604;78;20210;-79
2022/02/09 01:56:41;;;;;;;;;;;;;;;8.26;85.35;100481.52;1784861;78;20905;-80
2022/02/09 01:59:07;;;;;;;;;;;;;;;8.21;85.28;100480.59;1784606;79;20192;-77
2022/02/09 02:01:34;;;;;;;;;;;;;;;8.03;86.21;100486.12;1788520;78;20499;-78
2022/02/09 02:04:00;;;;;;;;;;;;;;;7.85;86.93;100495.94;1783187;79;20135;-77
2022/02/09 02:06:25;;;;;;;;;;;;;;;8.06;86.17;100491.13;1786220;79;21973;-76
2022/02/09 02:08:53;;;;;;;;;;;;;;;8.09;86.23;100493.48;1785795;79;20110;-77
2022/02/09 02:11:27;;;;;;;;;;;;;;;7.89;86.90;100505.70;1782930;79;20145;-78
2022/02/09 02:14:08;;;;;;;;;;;;;;;7.88;87.17;100511.45;1784020;79;20184;-78
2022/02/09 02:16:42;;;;;;;;;;;;;;;7.89;87.05;100509.19;1778855;78;20629;-78
2022/02/09 02:19:10;;;;;;;;;;;;;;;7.83;87.24;100512.34;1784181;79;20147;-77
2022/02/09 03:10:25;;;;;;;;;;;;;;;7.98;86.99;100571.98;1784473;78;20191;-76
2022/02/09 03:12:38;;;;;;;;;;;;;;;7.94;87.04;100575.86;1780512;78;20111;-82
2022/02/09 03:17:47;;;;;;;;;;;;;;;7.99;87.03;100567.58;1784158;79;20110;-77
2022/02/09 03:22:51;;;;;;;;;;;;;;;8.29;85.52;100573.83;1782289;79;20159;-78
2022/02/09 03:30:51;;;;;;;;;;;;;;;8.12;85.94;100569.52;1781548;78;20107;-76
2022/02/09 03:49:08;;;;;;;;;;;;;;;8.89;83.10;100573.47;1780778;79;20125;-78
2022/02/09 03:51:42;;;;;;;;;;;;;;;8.47;84.28;100589.40;1781092;79;20991;-78
2022/02/09 03:54:08;;;;;;;;;;;;;;;8.38;84.90;100579.63;1782307;79;20130;-79
2022/02/09 03:59:13;;;;;;;;;;;;;;;8.57;84.46;100586.30;1780980;79;20200;-76
2022/02/09 04:01:40;;;;;;;;;;;;;;;8.85;83.23;100597.08;1782651;78;20257;-78
2022/02/09 04:04:05;;;;;;;;;;;;;;;8.77;83.39;100599.56;1783341;79;20114;-77
2022/02/09 04:06:34;;;;;;;;;;;;;;;8.80;83.11;100605.88;1784567;79;20356;-77
2022/02/09 04:09:00;;;;;;;;;;;;;;;8.67;83.96;100596.90;1783117;79;20160;-76
2022/02/09 04:11:35;;;;;;;;;;;;;;;8.36;84.95;100598.64;1777704;78;20506;-79
2022/02/09 04:14:06;;;;;;;;;;;;;;;8.35;85.63;100594.36;1752027;79;20200;-78
2022/02/09 04:19:28;;;;;;;;;;;;;;;8.34;85.49;100597.95;1759074;79;20150;-78
2022/02/09 04:38:13;;;;;;;;;;;;;;;8.21;86.47;100588.47;1750582;79;20207;-77
2022/02/09 04:43:29;;;;;;;;;;;;;;;8.30;85.10;100580.74;1750061;79;21044;-78
2022/02/09 04:46:02;;;;;;;;;;;;;;;8.30;85.86;100586.00;1760314;79;20436;-81
2022/02/09 04:48:28;;;;;;;;;;;;;;;8.46;84.79;100595.62;1751006;79;20130;-77
2022/02/09 04:50:38;;;;;;;;;;;;;;;8.18;85.60;100588.72;1761922;79;20749;-78
2022/02/09 04:53:17;;;;;;;;;;;;;;;8.25;85.37;100589.87;1757672;79;20648;-79
2022/02/09 04:58:07;;;;;;;;;;;;;;;8.04;85.91;100591.69;1757153;79;20156;-81
2022/02/09 05:00:56;;;;;;;;;;;;;;;8.17;85.46;100592.80;1760211;79;20185;-79
2022/02/09 05:20:15;;;;;;;;;;;;;;;8.08;84.94;100598.38;1758068;79;20169;-80
2022/02/09 05:27:33;;;;;;;;;;;;;;;8.04;85.07;100611.41;1754874;79;20165;-81
2022/02/09 05:29:48;;;;;;;;;;;;;;;7.99;85.33;100610.98;1759663;79;20168;-77
2022/02/09 05:32:13;;;;;;;;;;;;;;;8.01;85.69;100611.67;1757393;79;20108;-77
2022/02/09 05:34:39;;;;;;;;;;;;;;;7.82;86.65;100618.45;1755828;79;21041;-80
2022/02/09 05:37:05;;;;;;;;;;;;;;;7.70;87.55;100616.84;1755646;79;20446;-77
2022/02/09 05:39:30;;;;;;;;;;;;;;;7.93;86.88;100618.88;1758731;79;20180;-80
2022/02/09 05:41:56;;;;;;;;;;;;;;;7.93;86.88;100611.00;1756703;79;20661;-79
2022/02/09 05:44:23;;;;;;;;;;;;;;;7.79;87.92;100613.45;1759198;79;20197;-81
2022/02/09 05:49:36;;;;;;;;;;;;;;;8.06;86.87;100613.42;1759319;79;20128;-77
2022/02/09 05:52:13;;;;;;;;;;;;;;;7.76;88.92;100614.19;1756103;79;20132;-78
2022/02/09 05:59:48;;;;;;;;;;;;;;;7.39;92.55;100631.16;1753238;81;20108;-77
2022/02/09 06:02:16;;;;;;;;;;;;;;;7.62;92.07;100617.46;1762470;79;20230;-81
2022/02/09 06:04:42;;;;;;;;;;;;;;;7.74;91.80;100620.89;1755116;80;20209;-79
2022/02/09 06:07:07;;;;;;;;;;;;;;;7.75;91.37;100616.45;1761218;78;20173;-79
2022/02/09 06:09:33;;;;;;;;;;;;;;;7.82;91.42;100618.95;1751101;79;20187;-80
2022/02/09 06:12:12;;;;;;;;;;;;;;;7.75;91.89;100627.80;1759906;79;21118;-79
2022/02/09 06:14:54;;;;;;;;;;;;;;;7.84;91.23;100639.37;1759402;79;20149;-79
2022/02/09 06:19:53;;;;;;;;;;;;;;;7.97;90.41;100627.34;1751871;79;20184;-76
2022/02/09 06:22:17;;;;;;;;;;;;;;;7.78;91.02;100628.86;1762045;79;20153;-80
2022/02/09 06:24:43;;;;;;;;;;;;;;;7.75;91.16;100630.42;1759388;79;21076;-78
2022/02/09 06:27:10;;;;;;;;;;;;;;;7.78;91.18;100633.30;1759657;79;20518;-76
2022/02/09 06:29:35;;;;;;;;;;;;;;;7.95;90.09;100641.11;1757433;79;20185;-78
2022/02/09 06:32:08;;;;;;;;;;;;;;;7.92;90.32;100631.67;1753230;79;20166;-79
2022/02/09 06:34:29;;;;;;;;;;;;;;;7.84;90.71;100636.25;1756245;79;20164;-76
2022/02/09 06:37:00;;;;;;;;;;;;;;;7.97;90.38;100644.44;1756827;79;21086;-80
2022/02/09 06:39:26;;;;;;;;;;;;;;;7.88;90.47;100644.24;1752951;79;20637;-79
2022/02/09 06:41:51;;;;;;;;;;;;;;;7.84;90.76;100645.45;1757528;79;20178;-80
2022/02/09 06:44:19;;;;;;;;;;;;;;;7.87;90.94;100649.14;1761283;79;20769;-78
2022/02/09 06:46:44;;;;;;;;;;;;;;;7.64;91.62;100656.77;1761105;78;20171;-80
2022/02/09 06:49:10;;;;;;;;;;;;;;;7.94;89.81;100657.84;1758054;79;22557;-77
2022/02/09 06:51:38;;;;;;;;;;;;;;;7.97;89.71;100665.02;1764066;79;20140;-79
2022/02/09 06:54:22;;;;;;;;;;;;;;;7.94;89.62;100652.12;1763046;78;20522;-78
2022/02/09 06:56:58;;;;;;;;;;;;;;;7.72;90.31;100665.70;1755131;79;20264;-78
2022/02/09 06:59:15;;;;;;;;;;;;;;;7.86;90.32;100662.41;1758926;79;20229;-78
2022/02/09 07:01:36;;;;;;;;;;;;;;;8.00;89.11;100656.02;1755467;79;20192;-79
2022/02/09 07:04:02;;;;;;;;;;;;;;;7.76;89.79;100658.39;1755812;79;20289;-79
2022/02/09 07:06:28;;;;;;;;;;;;;;;7.57;90.33;100665.64;1760883;79;20240;-77
2022/02/09 07:08:53;;;;;;;;;;;;;;;7.65;90.35;100665.02;1763738;78;20120;-76
2022/02/09 07:11:19;;;;;;;;;;;;;;;7.91;89.16;100661.08;1752688;80;20160;-79
2022/02/09 07:13:45;;;;;;;;;;;;;;;7.58;90.54;100654.63;1740233;79;20970;-78
2022/02/09 07:16:10;;;;;;;;;;;;;;;7.74;89.69;100659.02;1734537;81;20444;-81
2022/02/09 07:18:37;;;;;;;;;;;;;;;7.64;89.83;100655.45;1739318;80;20166;-81
2022/02/09 07:21:08;;;;;;;;;;;;;;;7.59;90.21;100674.71;1737721;80;20242;-78
2022/02/09 07:23:45;;;;;;;;;;;;;;;7.39;90.83;100662.68;1737074;81;21008;-76
2022/02/09 07:26:12;;;;;;;;;;;;;;;7.34;91.18;100666.16;1742103;80;20166;-76
2022/02/09 07:28:35;;;;;;;;;;;;;;;7.58;89.81;100653.32;1736792;80;20518;-77
2022/02/09 07:31:01;;;;;;;;;;;;;;;7.62;89.82;100667.89;1740498;81;20214;-80
2022/02/09 07:33:28;;;;;;;;;;;;;;;7.81;88.60;100670.67;1742686;81;20190;-79
2022/02/09 07:35:53;;;;;;;;;;;;;;;7.81;88.22;100678.56;1738566;80;20235;-78
2022/02/09 07:38:19;;;;;;;;;;;;;;;8.00;87.87;100682.31;1741860;80;21109;-80
2022/02/09 07:40:45;;;;;;;;;;;;;;;8.05;87.56;100688.05;1741547;80;20621;-79
2022/02/09 07:43:19;;;;;;;;;;;;;;;8.01;87.62;100675.62;1738577;80;20165;-78
2022/02/09 07:45:58;;;;;;;;;;;;;;;7.85;88.39;100677.36;1739804;81;20501;-79
2022/02/09 07:50:45;;;;;;;;;;;;;;;8.03;87.98;100684.23;1745381;80;20175;-81
2022/02/09 07:53:25;;;;;;;;;;;;;;;8.15;87.17;100676.28;1741129;81;20508;-79
2022/02/09 07:55:40;;;;;;;;;;;;;;;7.97;87.90;100693.09;1740131;81;20158;-78
2022/02/09 07:58:05;;;;;;;;;;;;;;;7.91;88.16;100678.67;1742228;80;20147;-79
2022/02/09 08:00:31;;;;;;;;;;;;;;;8.05;87.37;100682.80;1740464;80;20295;-78
2022/02/09 08:02:57;;;;;;;;;;;;;;;8.05;87.24;100684.11;1743987;80;21131;-78
2022/02/09 08:05:23;;;;;;;;;;;;;;;8.59;85.13;100680.94;1740368;80;20193;-76
2022/02/09 08:07:48;;;;;;;;;;;;;;;8.53;84.83;100679.69;1742875;79;20288;-77
2022/02/09 08:10:21;;;;;;;;;;;;;;;8.27;85.94;100693.19;1741963;80;20173;-77
2022/02/09 08:20:27;;;;;;;;;;;;;;;8.29;85.59;100672.50;1704643;79;20192;-79
2022/02/09 08:20:37;;;;;;;;;;;;;;;8.48;85.25;100679.22;1755893;79;21074;-79
2022/02/09 08:33:23;;;;;;;;;;;;;;;8.89;83.09;100693.31;1759846;79;20144;-80
2022/02/09 08:35:50;;;;;;;;;;;;;;;9.40;81.21;100677.52;1762634;79;20755;-79
2022/02/09 08:38:15;;;;;;;;;;;;;;;9.13;82.10;100692.14;1757934;79;20196;-77
2022/02/09 08:40:41;;;;;;;;;;;;;;;9.05;82.38;100676.17;1756212;79;21283;-82
2022/02/09 08:43:09;;;;;;;;;;;;;;;9.03;82.00;100686.03;1755887;81;20170;-81
2022/02/09 08:45:34;;;;;;;;;;;;;;;9.16;81.69;100676.07;1758900;79;20306;-78
2022/02/09 08:48:00;;;;;;;;;;;;;;;8.96;82.72;100682.61;1756608;79;21651;-79
2022/02/09 08:50:26;;;;;;;;;;;;;;;8.92;82.99;100682.51;1761583;79;20124;-78
2022/02/09 08:52:52;;;;;;;;;;;;;;;9.15;82.00;100681.83;1762173;79;21121;-80
2022/02/09 08:55:17;;;;;;;;;;;;;;;9.12;82.49;100679.47;1759259;79;20169;-79
2022/02/09 08:57:43;;;;;;;;;;;;;;;9.39;82.05;100677.19;1761542;79;20176;-82
2022/02/09 09:00:17;;;;;;;;;;;;;;;9.63;81.03;100669.73;1757775;79;20129;-82
2022/02/09 09:02:42;;;;;;;;;;;;;;;9.17;82.72;100676.43;1757365;79;20225;-81
2022/02/09 09:05:13;;;;;;;;;;;;;;;9.69;81.97;100659.95;1757216;79;20153;-79
2022/02/09 09:07:36;;;;;;;;;;;;;;;9.26;83.00;100663.77;1754552;79;20149;-79
2022/02/09 09:10:09;;;;;;;;;;;;;;;9.51;83.20;100664.23;1760541;79;20865;-81
2022/02/09 09:40:26;;;;;;;;;;;;;;;10.29;80.91;100648.38;1751999;79;20522;-79
2022/02/09 10:03:50;;;;;;;;;;;;;;;10.71;82.39;100650.66;1759774;78;20176;-81
2022/02/09 10:34:05;;;;;;;;;;;;;;;10.61;86.13;100655.13;1813080;77;20129;-79
2022/02/09 10:36:30;;;;;;;;;;;;;;;10.82;86.35;100640.89;1812827;77;20123;-78
2022/02/09 10:39:09;;;;;;;;;;;;;;;10.96;84.91;100639.08;1817667;77;20144;-80
2022/02/09 10:41:42;;;;;;;;;;;;;;;10.91;85.10;100646.13;1818901;77;22414;-79
2022/02/09 10:44:07;;;;;;;;;;;;;;;10.73;84.52;100644.73;1812361;77;20602;-79
2022/02/09 10:46:34;;;;;;;;;;;;;;;10.83;84.90;100638.57;1813406;77;20103;-79
2022/02/09 10:49:01;;;;;;;;;;;;;;;11.04;83.50;100629.92;1813243;77;20127;-77
2022/02/09 10:54:14;;;;;;;;;;;;;;;10.93;83.72;100615.09;1812316;77;20580;-80
2022/02/09 10:56:42;;;;;;;;;;;;;;;11.09;83.70;100616.27;1822880;77;20125;-80
2022/02/09 10:59:09;;;;;;;;;;;;;;;11.19;82.50;100604.33;1813998;77;21161;-77
2022/02/09 11:01:35;;;;;;;;;;;;;;;11.25;81.75;100615.63;1810321;77;20187;-77
2022/02/09 11:04:01;;;;;;;;;;;;;;;11.17;82.02;100608.91;1812054;77;20179;-78
2022/02/09 11:06:28;;;;;;;;;;;;;;;11.13;82.03;100602.60;1815791;77;21094;-78
2022/02/09 11:08:54;;;;;;;;;;;;;;;10.54;84.10;100609.16;1811970;77;20144;-78
2022/02/09 11:11:20;;;;;;;;;;;;;;;10.52;84.49;100608.48;1815570;77;20302;-80
2022/02/09 11:13:46;;;;;;;;;;;;;;;10.71;84.53;100611.03;1813971;77;20182;-76
2022/02/09 11:16:12;;;;;;;;;;;;;;;10.63;85.77;100610.94;1819815;77;20208;-79
2022/02/09 11:18:38;;;;;;;;;;;;;;;10.54;87.52;100615.77;1823536;77;21110;-78
2022/02/09 11:21:08;;;;;;;;;;;;;;;10.71;87.47;100596.50;1816964;77;20293;-80
2022/02/09 11:24:07;;;;;;;;;;;;;;;10.37;89.94;100612.88;1821292;77;20138;-79
2022/02/09 11:26:47;;;;;;;;;;;;;;;10.41;90.97;100606.84;1816356;77;20166;-79
2022/02/09 11:32:14;;;;;;;;;;;;;;;10.52;91.88;100596.59;1737450;82;20161;-80
2022/02/09 11:35:06;;;;;;;;;;;;;;;10.41;92.51;100597.11;1800912;77;20088;-80
2022/02/09 11:37:54;;;;;;;;;;;;;;;10.26;93.59;100592.41;1816821;77;20144;-80
2022/02/09 11:43:36;;;;;;;;;;;;;;;10.56;92.67;100588.71;1818909;77;20129;-81
2022/02/09 11:57:29;;;;;;;;;;;;;;;10.80;92.48;100572.81;1823276;78;20144;-77
2022/02/09 12:00:04;;;;;;;;;;;;;;;10.85;91.47;100561.34;1815216;78;20125;-78
2022/02/09 12:13:54;;;;;;;;;;;;;;;10.95;92.29;100562.95;1819676;78;20150;-75
2022/02/09 12:19:30;;;;;;;;;;;;;;;10.93;92.51;100562.74;1812830;77;20145;-80
2022/02/09 12:24:31;;;;;;;;;;;;;;;11.13;91.96;100551.06;1789589;77;21003;-81
2022/02/09 12:26:58;;;;;;;;;;;;;;;11.01;92.62;100564.14;1815541;77;21114;-81
2022/02/09 12:29:32;;;;;;;;;;;;;;;11.06;93.13;100561.05;1813059;77;20167;-77
2022/02/09 12:31:58;;;;;;;;;;;;;;;10.83;94.68;100565.92;1812096;77;20222;-80
2022/02/09 12:34:24;;;;;;;;;;;;;;;10.83;95.02;100562.81;1811767;77;20744;-77
2022/02/09 12:36:52;;;;;;;;;;;;;;;10.85;94.95;100561.34;1810321;77;20541;-82
2022/02/09 12:39:18;;;;;;;;;;;;;;;10.71;96.21;100552.92;1806002;77;20139;-78
2022/02/09 12:41:44;;;;;;;;;;;;;;;10.61;96.83;100556.09;1814287;77;20166;-78
2022/02/09 12:44:09;;;;;;;;;;;;;;;10.69;97.31;100563.28;1813408;77;20474;-81
2022/02/09 12:46:37;;;;;;;;;;;;;;;10.55;98.17;100564.59;1811275;77;20183;-78
2022/02/09 12:49:12;;;;;;;;;;;;;;;10.37;99.26;100574.60;1817321;77;20175;-78
2022/02/09 12:51:38;;;;;;;;;;;;;;;10.57;99.19;100557.38;1809873;77;21269;-77
2022/02/09 12:54:04;;;;;;;;;;;;;;;10.74;98.81;100552.63;1810626;77;20162;-79
2022/02/09 12:56:37;;;;;;;;;;;;;;;10.81;97.95;100557.32;1809844;77;20427;-77
2022/02/09 12:59:07;;;;;;;;;;;;;;;10.68;98.70;100550.57;1808259;77;20192;-77
2022/02/09 13:01:41;;;;;;;;;;;;;;;10.80;98.49;100549.04;1812907;77;20929;-77
2022/02/09 13:04:07;;;;;;;;;;;;;;;10.80;98.20;100549.04;1814618;77;21113;-77
2022/02/09 13:06:33;;;;;;;;;;;;;;;10.51;100.00;100557.45;1816020;77;20117;-79
2022/02/09 13:08:59;;;;;;;;;;;;;;;10.69;100.00;100545.64;1814873;77;20188;-81
2022/02/09 13:11:29;;;;;;;;;;;;;;;10.64;100.00;100550.52;1815232;77;20627;-80
2022/02/09 13:13:56;;;;;;;;;;;;;;;10.70;100.00;100539.86;1808002;77;20168;-81
2022/02/09 13:16:46;;;;;;;;;;;;;;;10.94;99.71;100541.95;1816831;77;20123;-82
2022/02/09 14:58:27;;;;;;;;;;;;;;;11.09;99.98;100512.72;1821493;77;20187;-80
2022/02/09 15:09:07;;;;;;;;;;;;;;;10.98;99.44;100506.30;1822547;77;20461;-77
2022/02/09 15:11:12;;;;;;;;;;;;;;;11.09;98.62;100511.39;1811588;77;20647;-80
2022/02/09 15:14:03;;;;;;;;;;;;;;;11.10;98.68;100517.00;1820089;77;20122;-81
2022/02/09 15:16:21;;;;;;;;;;;;;;;11.11;97.50;100514.70;1823115;77;20132;-79
2022/02/09 15:23:53;;;;;;;;;;;;;;;10.92;98.21;100525.40;1819403;77;20128;-77
2022/02/09 15:26:23;;;;;;;;;;;;;;;11.00;97.78;100528.15;1821640;77;20270;-78
2022/02/09 15:28:46;;;;;;;;;;;;;;;11.22;96.44;100520.77;1819752;77;20202;-78
2022/02/09 15:31:20;;;;;;;;;;;;;;;10.94;97.72;100519.50;1819812;77;20151;-78
2022/02/09 15:33:44;;;;;;;;;;;;;;;10.78;98.09;100564.57;1817419;77;20153;-78
2022/02/09 15:36:11;;;;;;;;;;;;;;;11.00;97.34;100537.39;1816689;77;20127;-79
2022/02/09 15:38:44;;;;;;;;;;;;;;;10.82;99.70;100527.29;1823361;77;20109;-80
2022/02/09 15:56:16;;;;;;;;;;;;;;;10.55;100.00;100537.72;1816128;77;20166;-80
2022/02/09 16:05:46;;;;;;;;;;;;;;;10.20;100.00;100542.34;1823153;77;20149;-80
2022/02/09 16:08:51;;;;;;;;;;;;;;;10.24;100.00;100541.91;1813282;77;20149;-79
2022/02/09 16:23:46;;;;;;;;;;;;;;;10.36;100.00;100520.16;1822785;77;20127;-78
2022/02/09 16:33:11;;;;;;;;;;;;;;;10.27;100.00;100560.59;1820497;77;20182;-77
2022/02/09 16:44:47;;;;;;;;;;;;;;;10.37;100.00;100528.91;1821596;77;20198;-78
2022/02/09 16:47:42;;;;;;;;;;;;;;;10.50;99.34;100536.48;1822281;77;21250;-78
2022/02/09 16:49:56;;;;;;;;;;;;;;;10.46;99.88;100521.42;1821627;77;20169;-78
2022/02/09 16:52:26;;;;;;;;;;;;;;;10.49;99.29;100514.53;1818156;77;20105;-78
2022/02/09 16:54:57;;;;;;;;;;;;;;;10.65;98.48;100508.61;1822858;77;20227;-80
2022/02/09 17:19:02;;;;;;;;;;;;;;;10.53;97.50;100521.20;1820745;77;20119;-78
2022/02/09 17:21:27;;;;;;;;;;;;;;;10.51;97.53;100528.91;1819835;77;20494;-78
2022/02/09 17:23:54;;;;;;;;;;;;;;;10.32;98.41;100524.02;1816941;77;20368;-79
2022/02/09 17:26:20;;;;;;;;;;;;;;;10.64;96.89;100529.38;1818301;77;21088;-77
2022/02/09 17:28:46;;;;;;;;;;;;;;;10.63;96.39;100521.14;1813337;77;20127;-78
2022/02/09 17:31:23;;;;;;;;;;;;;;;10.24;97.03;100529.20;1807987;77;20100;-78
2022/02/09 17:36:26;;;;;;;;;;;;;;;10.55;95.37;100502.53;1810589;77;20538;-78
2022/02/09 17:38:57;;;;;;;;;;;;;;;10.36;95.38;100499.04;1815873;77;20203;-79
2022/02/09 17:58:14;;;;;;;;;;;;;;;10.64;91.84;100496.37;1809558;77;20223;-79
2022/02/09 18:00:13;;;;;;;;;;;;;;;10.47;92.01;100491.88;1787290;77;20115;-81
2022/02/09 18:02:25;;;;;;;;;;;;;;;10.29;92.71;100501.87;1816278;77;20208;-79
2022/02/09 18:04:50;;;;;;;;;;;;;;;10.62;91.46;100504.94;1809434;77;21076;-79
2022/02/09 18:07:19;;;;;;;;;;;;;;;10.63;90.76;100510.58;1819202;77;20813;-79
2022/02/09 18:09:48;;;;;;;;;;;;;;;10.67;90.39;100505.31;1821960;77;20132;-80
2022/02/09 18:15:24;;;;;;;;;;;;;;;10.62;90.26;100500.98;1814985;77;20190;-78
2022/02/09 18:26:13;;;;;;;;;;;;;;;10.65;88.56;100514.39;1814268;77;20152;-78
2022/02/09 18:31:08;;;;;;;;;;;;;;;10.48;89.29;100526.06;1812454;77;20121;-79
2022/02/09 18:42:32;;;;;;;;;;;;;;;10.82;87.48;100499.55;1810999;77;20135;-79
2022/02/09 18:44:15;;;;;;;;;;;;;;;10.58;88.32;100499.59;1811459;77;20216;-77
2022/02/09 18:46:54;;;;;;;;;;;;;;;10.68;87.69;100492.46;1819114;77;20148;-79
2022/02/09 18:56:56;;;;;;;;;;;;;;;10.57;87.92;100490.86;1810698;77;20160;-79
2022/02/09 18:57:39;;;;;;;;;;;;;;;10.92;85.73;100481.80;1807118;77;20179;-78
2022/02/09 19:00:23;;;;;;;;;;;;;;;10.94;85.39;100475.90;1811250;77;20129;-78
2022/02/09 19:15:20;;;;;;;;;;;;;;;11.30;83.35;100497.03;1810742;77;20622;-78
2022/02/09 19:20:19;;;;;;;;;;;;;;;10.98;84.06;100491.77;1809807;76;20147;-77
2022/02/09 19:28:56;;;;;;;;;;;;;;;10.96;83.46;100495.06;1809586;77;20132;-78
2022/02/09 19:46:51;;;;;;;;;;;;;;;10.81;83.19;100507.13;1815439;77;20169;-79
2022/02/09 19:52:11;;;;;;;;;;;;;;;10.89;82.53;100497.95;1822362;77;20118;-79
2022/02/09 19:54:44;;;;;;;;;;;;;;;10.70;82.83;100510.30;1816443;77;20164;-77
2022/02/09 19:57:07;;;;;;;;;;;;;;;10.60;83.12;100506.91;1819463;77;20131;-78
2022/02/09 19:59:35;;;;;;;;;;;;;;;10.67;82.07;100518.52;1815171;77;20179;-79
2022/02/09 20:02:00;;;;;;;;;;;;;;;10.70;82.02;100510.30;1821904;77;20164;-79
2022/02/09 20:04:25;;;;;;;;;;;;;;;10.53;82.27;100509.78;1814684;77;20474;-75
2022/02/09 20:06:51;;;;;;;;;;;;;;;10.74;80.98;100520.92;1819967;77;20799;-77
2022/02/09 20:09:18;;;;;;;;;;;;;;;10.87;80.36;100506.53;1813485;77;20132;-80
2022/02/09 20:11:44;;;;;;;;;;;;;;;10.59;80.22;100511.84;1817509;77;20192;-79
2022/02/09 20:14:11;;;;;;;;;;;;;;;10.75;79.58;100509.39;1823037;77;21194;-81
2022/02/09 20:16:37;;;;;;;;;;;;;;;10.61;78.98;100530.99;1819861;77;20376;-78
2022/02/09 20:19:03;;;;;;;;;;;;;;;10.76;78.65;100520.28;1822835;77;20173;-77
2022/02/09 20:21:29;;;;;;;;;;;;;;;10.69;78.70;100537.72;1825328;77;21386;-77
2022/02/09 20:23:55;;;;;;;;;;;;;;;10.78;78.20;100524.95;1823402;77;20140;-78
2022/02/09 20:26:21;;;;;;;;;;;;;;;10.62;78.61;100526.06;1829553;77;21856;-80
2022/02/09 20:29:17;;;;;;;;;;;;;;;10.60;78.71;100534.63;1826875;77;20140;-79
2022/02/09 20:31:19;;;;;;;;;;;;;;;10.76;78.29;100546.69;1821026;77;20664;-81
2022/02/09 20:33:48;;;;;;;;;;;;;;;10.80;78.60;100527.91;1826287;77;20512;-79
2022/02/09 20:36:12;;;;;;;;;;;;;;;10.89;77.96;100525.70;1828552;77;20557;-81
2022/02/09 20:38:38;;;;;;;;;;;;;;;10.68;78.76;100523.34;1823488;77;20122;-79
2022/02/09 20:41:07;;;;;;;;;;;;;;;10.76;78.39;100539.27;1820692;77;20416;-79
2022/02/09 20:43:38;;;;;;;;;;;;;;;10.61;78.72;100517.79;1831445;77;20460;-79
2022/02/09 20:46:02;;;;;;;;;;;;;;;10.64;79.15;100525.42;1826584;77;20126;-80
2022/02/09 20:48:27;;;;;;;;;;;;;;;10.72;78.99;100522.89;1823773;77;20153;-80
2022/02/09 20:50:55;;;;;;;;;;;;;;;10.55;79.79;100519.70;1826032;77;21030;-80
2022/02/09 20:53:22;;;;;;;;;;;;;;;10.67;79.20;100520.34;1824985;77;20123;-79
2022/02/09 20:55:47;;;;;;;;;;;;;;;10.93;78.92;100519.97;1831122;77;20115;-80
2022/02/09 20:58:13;;;;;;;;;;;;;;;10.67;79.80;100541.47;1827329;77;20441;-78
2022/02/09 21:00:48;;;;;;;;;;;;;;;10.80;79.61;100527.91;1824457;77;20880;-79
2022/02/09 21:11:16;;;;;;;;;;;;;;;10.60;81.09;100516.15;1829250;77;20159;-79
2022/02/09 21:13:47;;;;;;;;;;;;;;;10.80;80.29;100518.66;1830584;77;20414;-78
2022/02/09 21:31:59;;;;;;;;;;;;;;;10.66;81.45;100516.88;1818745;78;20587;-80
2022/02/09 21:58:39;;;;;;;;;;;;;;;10.64;81.87;100520.64;1825290;77;20100;-79
2022/02/09 22:01:27;;;;;;;;;;;;;;;10.69;81.67;100525.83;1815121;78;20156;-76
2022/02/09 22:19:18;;;;;;;;;;;;;;;10.53;83.33;100510.63;1828190;77;20147;-81
2022/02/09 22:20:14;;;;;;;;;;;;;;;10.57;82.96;100531.79;1819865;78;20173;-82
2022/02/09 22:27:45;;;;;;;;;;;;;;;10.55;83.06;100494.61;1706606;82;20571;-76
2022/02/09 22:54:49;;;;;;;;;;;;;;;10.62;84.21;100482.49;1797719;77;20653;-79
2022/02/09 22:57:16;;;;;;;;;;;;;;;10.49;84.73;100482.03;1796957;77;20175;-78
2022/02/09 22:59:50;;;;;;;;;;;;;;;10.48;84.70;100509.41;1779131;77;20135;-82
2022/02/09 23:02:23;;;;;;;;;;;;;;;10.48;85.00;100490.92;1792532;77;20183;-75
2022/02/09 23:07:23;;;;;;;;;;;;;;;10.30;85.72;100487.72;1792258;77;20171;-80
2022/02/09 23:17:45;;;;;;;;;;;;;;;10.37;85.77;100478.24;1798591;77;20147;-78
2022/02/09 23:29:07;;;;;;;;;;;;;;;10.43;85.87;100472.06;1807008;79;20194;-80
2022/02/09 23:55:27;;;;;;;;;;;;;;;10.48;86.18;100485.64;1806047;79;20165;-78
